createdAt,value
2022-08-02T00:00:31.270Z,31.90
2022-08-02T00:01:30.327Z,18.20
2022-08-02T00:02:30.244Z,23.60
2022-08-02T00:03:30.864Z,22.40
2022-08-02T00:04:30.209Z,25.60
2022-08-02T00:05:30.194Z,13.30
2022-08-02T00:06:30.169Z,22.70
2022-08-02T00:07:30.169Z,15.20
2022-08-02T00:08:30.178Z,29.90
2022-08-02T00:09:30.150Z,13.50
2022-08-02T00:10:30.473Z,15.60
2022-08-02T00:11:30.122Z,11.10
2022-08-02T00:12:30.122Z,22.60
2022-08-02T00:13:30.132Z,15.50
2022-08-02T00:14:30.095Z,15.70
2022-08-02T00:15:30.084Z,24.30
2022-08-02T00:16:37.951Z,20.50
2022-08-02T00:17:31.041Z,11.40
2022-08-02T00:18:30.058Z,15.60
2022-08-02T00:19:30.027Z,13.40
2022-08-02T00:20:29.994Z,30.90
2022-08-02T00:21:29.984Z,21.60
2022-08-02T00:22:29.945Z,23.40
2022-08-02T00:23:29.953Z,27.20
2022-08-02T00:24:32.634Z,20.90
2022-08-02T00:25:29.934Z,26.90
2022-08-02T00:26:29.923Z,19.60
2022-08-02T00:27:29.905Z,12.20
2022-08-02T00:28:34.976Z,23.10
2022-08-02T00:29:29.893Z,20.30
2022-08-02T00:30:29.834Z,26.90
2022-08-02T00:31:29.855Z,17.60
2022-08-02T00:32:29.925Z,26.60
2022-08-02T00:34:29.878Z,33.60
2022-08-02T00:34:33.016Z,20.80
2022-08-02T00:35:30.776Z,22.10
2022-08-02T00:36:29.783Z,24.90
2022-08-02T00:37:29.841Z,29.50
2022-08-02T00:38:29.746Z,39.90
2022-08-02T00:39:34.442Z,28.30
2022-08-02T00:40:30.735Z,40.90
2022-08-02T00:41:29.722Z,26.70
2022-08-02T00:42:30.577Z,32.90
2022-08-02T00:43:29.686Z,17.20
2022-08-02T00:44:29.681Z,37.40
2022-08-02T00:46:02.048Z,20.90
2022-08-02T00:46:30.676Z,35.60
2022-08-02T00:47:29.607Z,13.60
2022-08-02T00:48:29.608Z,15.40
2022-08-02T00:49:29.718Z,18.20
2022-08-02T00:50:29.637Z,17.70
2022-08-02T00:51:29.589Z,18.50
2022-08-02T00:52:29.629Z,17.80
2022-08-02T00:53:29.549Z,21.60
2022-08-02T00:54:29.536Z,22.80
2022-08-02T00:55:31.085Z,27.10
2022-08-02T00:56:29.519Z,26.40
2022-08-02T00:57:29.566Z,29.60
2022-08-02T00:58:29.660Z,24.30
2022-08-02T00:59:29.514Z,42.30
2022-08-02T01:00:29.987Z,30.40
2022-08-02T01:01:29.537Z,25.90
2022-08-02T01:02:29.567Z,26.70
2022-08-02T01:03:29.613Z,29.20
2022-08-02T01:04:30.618Z,21.90
2022-08-02T01:05:29.502Z,36.70
2022-08-02T01:06:29.419Z,16.30
2022-08-02T01:07:29.374Z,13.70
2022-08-02T01:08:31.787Z,16.70
2022-08-02T01:09:29.404Z,17.90
2022-08-02T01:10:29.355Z,16.90
2022-08-02T01:11:29.351Z,17.80
2022-08-02T01:12:29.304Z,14.70
2022-08-02T01:13:29.325Z,19.60
2022-08-02T01:14:29.371Z,13.50
2022-08-02T01:15:36.170Z,12.50
2022-08-02T01:16:30.292Z,13.20
2022-08-02T01:17:29.375Z,14.70
2022-08-02T01:18:29.249Z,15.10
2022-08-02T01:19:29.316Z,15.80
2022-08-02T01:20:29.288Z,17.00
2022-08-02T01:21:29.225Z,19.90
2022-08-02T01:22:45.167Z,15.30
2022-08-02T01:23:30.165Z,14.20
2022-08-02T01:24:29.136Z,15.30
2022-08-02T01:25:29.179Z,21.40
2022-08-02T01:26:29.156Z,16.20
2022-08-02T01:27:29.231Z,13.70
2022-08-02T01:28:29.087Z,20.60
2022-08-02T01:29:29.078Z,17.70
2022-08-02T01:30:29.053Z,18.10
2022-08-02T01:31:29.016Z,17.50
2022-08-02T01:32:29.027Z,16.50
2022-08-02T01:33:28.987Z,16.10
2022-08-02T01:34:28.987Z,15.20
2022-08-02T01:35:29.851Z,14.10
2022-08-02T01:36:29.947Z,13.50
2022-08-02T01:37:28.960Z,12.90
2022-08-02T01:38:28.916Z,12.90
2022-08-02T01:39:32.568Z,17.00
2022-08-02T01:40:28.974Z,16.10
2022-08-02T01:41:28.869Z,12.00
2022-08-02T01:42:28.868Z,12.40
2022-08-02T01:43:28.879Z,12.40
2022-08-02T01:44:28.821Z,13.60
2022-08-02T01:45:28.839Z,12.50
2022-08-02T01:46:28.801Z,11.10
2022-08-02T01:47:28.791Z,10.40
2022-08-02T01:48:28.772Z,10.40
2022-08-02T01:49:28.815Z,11.30
2022-08-02T01:50:28.738Z,11.70
2022-08-02T01:51:28.749Z,10.30
2022-08-02T01:52:29.710Z,9.70
2022-08-02T01:53:28.730Z,10.40
2022-08-02T01:54:28.722Z,9.50
2022-08-02T01:55:34.975Z,10.00
2022-08-02T01:56:29.650Z,8.60
2022-08-02T01:57:28.653Z,7.70
2022-08-02T01:58:28.662Z,10.00
2022-08-02T01:59:28.644Z,17.40
2022-08-02T02:00:28.613Z,14.50
2022-08-02T02:01:28.673Z,14.80
2022-08-02T02:02:31.673Z,14.60
2022-08-02T02:03:28.610Z,18.80
2022-08-02T02:04:28.554Z,18.00
2022-08-02T02:05:28.541Z,13.60
2022-08-02T02:06:28.552Z,10.30
2022-08-02T02:07:28.542Z,11.30
2022-08-02T02:08:28.511Z,18.00
2022-08-02T02:09:28.492Z,9.50
2022-08-02T02:10:28.502Z,11.00
2022-08-02T02:12:13.077Z,12.20
2022-08-02T02:12:29.486Z,16.90
2022-08-02T02:13:33.301Z,21.50
2022-08-02T02:14:29.428Z,19.90
2022-08-02T02:15:28.433Z,13.70
2022-08-02T02:16:28.393Z,16.80
2022-08-02T02:18:10.487Z,15.70
2022-08-02T02:18:29.369Z,12.40
2022-08-02T02:19:28.353Z,11.10
2022-08-02T02:20:28.356Z,19.50
2022-08-02T02:21:28.334Z,22.90
2022-08-02T02:22:28.307Z,12.40
2022-08-02T02:23:30.129Z,16.40
2022-08-02T02:24:29.287Z,14.80
2022-08-02T02:25:28.274Z,11.80
2022-08-02T02:26:29.594Z,17.10
2022-08-02T02:27:28.245Z,12.60
2022-08-02T02:28:28.235Z,17.10
2022-08-02T02:29:28.222Z,15.80
2022-08-02T02:30:28.208Z,24.70
2022-08-02T02:31:28.209Z,21.40
2022-08-02T02:32:28.196Z,20.20
2022-08-02T02:33:29.665Z,22.60
2022-08-02T02:34:28.154Z,17.90
2022-08-02T02:35:28.126Z,12.90
2022-08-02T02:36:28.119Z,23.30
2022-08-02T02:37:28.101Z,24.50
2022-08-02T02:38:28.080Z,20.50
2022-08-02T02:39:28.128Z,13.30
2022-08-02T02:40:28.101Z,18.90
2022-08-02T02:41:29.182Z,20.30
2022-08-02T02:42:28.039Z,20.90
2022-08-02T02:43:28.038Z,20.50
2022-08-02T02:44:28.030Z,18.80
2022-08-02T02:45:28.021Z,15.20
2022-08-02T02:46:27.992Z,22.10
2022-08-02T02:47:41.051Z,22.20
2022-08-02T02:48:29.007Z,25.80
2022-08-02T02:49:27.976Z,17.60
2022-08-02T02:50:27.930Z,15.40
2022-08-02T02:51:27.921Z,21.60
2022-08-02T02:52:27.930Z,26.30
2022-08-02T02:53:27.919Z,27.40
2022-08-02T02:54:34.223Z,25.90
2022-08-02T02:55:28.840Z,17.60
2022-08-02T02:56:27.872Z,19.60
2022-08-02T02:57:27.824Z,24.10
2022-08-02T02:58:28.969Z,21.70
2022-08-02T02:59:27.822Z,12.10
2022-08-02T03:00:27.772Z,14.90
2022-08-02T03:01:55.620Z,16.70
2022-08-02T03:02:28.772Z,14.00
2022-08-02T03:03:27.752Z,23.40
2022-08-02T03:04:27.734Z,20.20
2022-08-02T03:05:28.731Z,16.50
2022-08-02T03:06:27.721Z,18.50
2022-08-02T03:07:27.703Z,23.20
2022-08-02T03:08:27.673Z,25.10
2022-08-02T03:09:27.695Z,25.80
2022-08-02T03:10:27.647Z,26.20
2022-08-02T03:11:27.668Z,26.70
2022-08-02T03:12:31.787Z,24.30
2022-08-02T03:13:33.082Z,20.10
2022-08-02T03:14:28.624Z,20.20
2022-08-02T03:15:27.575Z,15.40
2022-08-02T03:16:27.579Z,13.40
2022-08-02T03:17:27.537Z,17.70
2022-08-02T03:18:27.538Z,14.10
2022-08-02T03:19:33.405Z,12.60
2022-08-02T03:20:28.544Z,10.10
2022-08-02T03:21:27.526Z,13.10
2022-08-02T03:22:27.526Z,17.80
2022-08-02T03:23:27.478Z,10.90
2022-08-02T03:24:28.286Z,12.10
2022-08-02T03:25:27.456Z,9.30
2022-08-02T03:26:27.417Z,8.10
2022-08-02T03:27:27.408Z,11.20
2022-08-02T03:28:27.404Z,11.10
2022-08-02T03:29:30.350Z,11.90
2022-08-02T03:30:28.368Z,14.40
2022-08-02T03:31:27.357Z,7.80
2022-08-02T03:32:28.402Z,10.00
2022-08-02T03:33:27.309Z,11.40
2022-08-02T03:34:27.300Z,14.10
2022-08-02T03:35:27.296Z,11.10
2022-08-02T03:36:27.314Z,8.90
2022-08-02T03:37:27.291Z,10.40
2022-08-02T03:38:28.997Z,8.30
2022-08-02T03:39:27.229Z,10.70
2022-08-02T03:40:27.233Z,11.80
2022-08-02T03:41:27.244Z,10.30
2022-08-02T03:42:27.246Z,11.10
2022-08-02T03:43:28.687Z,9.30
2022-08-02T03:44:27.161Z,10.30
2022-08-02T03:45:27.210Z,8.90
2022-08-02T03:46:27.156Z,15.00
2022-08-02T03:47:27.150Z,10.80
2022-08-02T03:48:34.316Z,6.60
2022-08-02T03:49:28.225Z,8.30
2022-08-02T03:50:27.105Z,8.90
2022-08-02T03:51:27.073Z,7.80
2022-08-02T03:52:27.483Z,9.10
2022-08-02T03:53:27.048Z,8.70
2022-08-02T03:54:33.012Z,8.60
2022-08-02T03:55:28.064Z,9.20
2022-08-02T03:56:27.022Z,9.20
2022-08-02T03:57:26.985Z,9.50
2022-08-02T03:58:26.963Z,8.70
2022-08-02T03:59:26.966Z,10.10
2022-08-02T04:00:27.962Z,8.30
2022-08-02T04:01:27.010Z,10.90
2022-08-02T04:02:26.914Z,9.40
2022-08-02T04:03:26.914Z,8.80
2022-08-02T04:04:26.936Z,10.50
2022-08-02T04:05:26.868Z,11.30
2022-08-02T04:06:27.160Z,11.30
2022-08-02T04:08:34.456Z,9.80
2022-08-02T04:08:35.965Z,10.10
2022-08-02T04:09:27.825Z,10.30
2022-08-02T04:10:26.915Z,10.30
2022-08-02T04:11:26.839Z,10.50
2022-08-02T04:12:26.860Z,11.90
2022-08-02T04:13:31.332Z,10.10
2022-08-02T04:14:27.758Z,13.60
2022-08-02T04:15:26.747Z,16.70
2022-08-02T04:16:26.735Z,13.00
2022-08-02T04:17:26.721Z,17.20
2022-08-02T04:18:26.707Z,15.20
2022-08-02T04:19:26.687Z,12.20
2022-08-02T04:20:26.662Z,12.30
2022-08-02T04:21:26.666Z,13.70
2022-08-02T04:22:27.649Z,12.10
2022-08-02T04:23:26.630Z,12.20
2022-08-02T04:24:26.683Z,11.30
2022-08-02T04:25:36.449Z,13.20
2022-08-02T04:26:28.465Z,14.10
2022-08-02T04:27:50.814Z,10.70
2022-08-02T04:28:29.108Z,13.20
2022-08-02T04:29:26.614Z,12.90
2022-08-02T04:30:26.519Z,13.20
2022-08-02T04:31:26.502Z,11.50
2022-08-02T04:32:26.518Z,12.70
2022-08-02T04:33:26.480Z,13.40
2022-08-02T04:34:26.537Z,13.60
2022-08-02T04:35:26.490Z,11.80
2022-08-02T04:36:31.702Z,13.50
2022-08-02T04:37:27.439Z,12.60
2022-08-02T04:38:26.419Z,13.10
2022-08-02T04:39:26.431Z,12.90
2022-08-02T04:40:26.375Z,12.70
2022-08-02T04:41:26.401Z,12.60
2022-08-02T04:42:26.396Z,12.10
2022-08-02T04:43:26.382Z,12.60
2022-08-02T04:44:26.354Z,12.30
2022-08-02T04:45:26.390Z,14.00
2022-08-02T04:46:26.315Z,13.70
2022-08-02T04:48:03.535Z,14.30
2022-08-02T04:48:27.354Z,13.50
2022-08-02T04:49:26.307Z,11.00
2022-08-02T04:50:26.265Z,12.50
2022-08-02T04:51:38.190Z,10.90
2022-08-02T04:52:27.224Z,14.00
2022-08-02T04:53:26.215Z,14.40
2022-08-02T04:54:26.208Z,13.80
2022-08-02T04:55:26.206Z,11.10
2022-08-02T04:56:26.183Z,11.50
2022-08-02T04:57:27.109Z,10.60
2022-08-02T04:58:41.503Z,10.60
2022-08-02T04:59:27.144Z,9.70
2022-08-02T05:00:26.213Z,11.80
2022-08-02T05:01:26.099Z,11.30
2022-08-02T05:02:26.077Z,10.70
2022-08-02T05:03:27.029Z,11.80
2022-08-02T05:04:26.127Z,13.00
2022-08-02T05:05:26.046Z,10.70
2022-08-02T05:06:26.011Z,12.30
2022-08-02T05:07:26.054Z,10.60
2022-08-02T05:08:26.017Z,13.50
2022-08-02T05:09:26.009Z,13.50
2022-08-02T05:10:25.988Z,12.80
2022-08-02T05:11:34.356Z,11.20
2022-08-02T05:12:27.073Z,20.00
2022-08-02T05:13:26.004Z,18.80
2022-08-02T05:14:25.948Z,13.30
2022-08-02T05:15:28.322Z,12.40
2022-08-02T05:16:31.361Z,12.10
2022-08-02T05:17:26.894Z,12.60
2022-08-02T05:18:25.881Z,23.90
2022-08-02T05:19:25.891Z,21.20
2022-08-02T05:20:25.852Z,21.80
2022-08-02T05:21:26.838Z,15.80
2022-08-02T05:22:25.834Z,17.40
2022-08-02T05:23:25.789Z,12.20
2022-08-02T05:24:25.826Z,12.20
2022-08-02T05:25:25.811Z,12.90
2022-08-02T05:26:25.805Z,11.60
2022-08-02T05:27:25.765Z,12.80
2022-08-02T05:28:25.735Z,14.10
2022-08-02T05:29:25.716Z,13.90
2022-08-02T05:30:25.703Z,13.10
2022-08-02T05:31:25.674Z,18.10
2022-08-02T05:32:25.923Z,11.80
2022-08-02T05:33:25.684Z,14.60
2022-08-02T05:34:25.645Z,14.80
2022-08-02T05:35:25.605Z,15.90
2022-08-02T05:36:25.614Z,16.50
2022-08-02T05:37:25.655Z,23.30
2022-08-02T05:38:26.616Z,16.90
2022-08-02T05:39:25.597Z,17.40
2022-08-02T05:40:26.565Z,16.00
2022-08-02T05:41:25.526Z,23.10
2022-08-02T05:42:25.546Z,17.10
2022-08-02T05:43:25.506Z,15.40
2022-08-02T05:44:25.508Z,14.70
2022-08-02T05:45:25.487Z,17.60
2022-08-02T05:46:25.473Z,14.00
2022-08-02T05:47:25.491Z,14.60
2022-08-02T05:48:30.851Z,14.20
2022-08-02T05:49:26.477Z,13.40
2022-08-02T05:50:25.447Z,16.20
2022-08-02T05:51:25.434Z,14.60
2022-08-02T05:52:25.380Z,14.90
2022-08-02T05:53:25.361Z,11.80
2022-08-02T05:54:25.340Z,12.00
2022-08-02T05:55:25.378Z,12.10
2022-08-02T05:56:25.363Z,12.30
2022-08-02T05:57:25.366Z,11.90
2022-08-02T05:58:25.292Z,8.50
2022-08-02T05:59:25.290Z,9.20
2022-08-02T06:00:25.260Z,9.80
2022-08-02T06:01:25.311Z,12.30
2022-08-02T06:02:29.994Z,10.70
2022-08-02T06:03:26.231Z,12.90
2022-08-02T06:04:25.200Z,6.90
2022-08-02T06:05:25.210Z,6.90
2022-08-02T06:06:25.192Z,6.80
2022-08-02T06:07:25.554Z,7.20
2022-08-02T06:08:25.134Z,6.00
2022-08-02T06:09:27.027Z,6.70
2022-08-02T06:10:25.150Z,5.40
2022-08-02T06:11:25.131Z,6.20
2022-08-02T06:12:25.176Z,4.10
2022-08-02T06:13:25.064Z,4.40
2022-08-02T06:14:25.129Z,5.30
2022-08-02T06:15:26.073Z,5.10
2022-08-02T06:16:32.088Z,4.80
2022-08-02T06:17:26.090Z,5.40
2022-08-02T06:18:28.399Z,4.60
2022-08-02T06:19:25.003Z,4.40
2022-08-02T06:20:25.035Z,4.70
2022-08-02T06:22:31.755Z,3.40
2022-08-02T06:22:33.596Z,4.50
2022-08-02T06:23:25.960Z,4.10
2022-08-02T06:24:24.925Z,4.00
2022-08-02T06:25:49.714Z,4.00
2022-08-02T06:26:25.916Z,4.80
2022-08-02T06:27:24.896Z,3.70
2022-08-02T06:28:24.976Z,3.70
2022-08-02T06:29:24.851Z,3.40
2022-08-02T06:30:24.855Z,3.90
2022-08-02T06:31:25.067Z,4.10
2022-08-02T06:32:25.655Z,4.20
2022-08-02T06:33:24.819Z,3.60
2022-08-02T06:34:24.800Z,3.80
2022-08-02T06:35:24.819Z,3.30
2022-08-02T06:36:24.755Z,3.80
2022-08-02T06:37:24.789Z,4.00
2022-08-02T06:38:24.739Z,3.90
2022-08-02T06:39:24.720Z,3.30
2022-08-02T06:40:24.716Z,3.50
2022-08-02T06:41:24.715Z,3.50
2022-08-02T06:42:26.944Z,3.40
2022-08-02T06:43:24.697Z,3.60
2022-08-02T06:45:25.631Z,3.10
2022-08-02T06:46:37.667Z,3.60
2022-08-02T06:47:25.653Z,3.20
2022-08-02T06:48:24.601Z,3.60
2022-08-02T06:49:24.621Z,3.90
2022-08-02T06:50:25.566Z,3.50
2022-08-02T06:51:26.014Z,2.90
2022-08-02T06:52:28.162Z,3.40
2022-08-02T06:53:24.554Z,3.30
2022-08-02T06:54:24.527Z,3.20
2022-08-02T06:55:24.485Z,2.90
2022-08-02T06:56:24.612Z,3.50
2022-08-02T06:57:24.497Z,3.00
2022-08-02T06:58:24.458Z,3.60
2022-08-02T06:59:24.467Z,3.70
2022-08-02T07:00:24.468Z,2.90
2022-08-02T07:01:24.438Z,3.50
2022-08-02T07:02:24.431Z,3.60
2022-08-02T07:03:24.419Z,3.10
2022-08-02T07:04:24.388Z,3.40
2022-08-02T07:05:24.369Z,3.30
2022-08-02T07:06:25.239Z,3.00
2022-08-02T07:07:24.340Z,3.00
2022-08-02T07:08:24.313Z,3.20
2022-08-02T07:09:24.506Z,3.00
2022-08-02T07:10:24.403Z,3.30
2022-08-02T07:11:24.301Z,3.10
2022-08-02T07:12:24.282Z,2.90
2022-08-02T07:13:24.250Z,2.70
2022-08-02T07:14:24.223Z,2.60
2022-08-02T07:15:24.283Z,2.90
2022-08-02T07:16:24.225Z,2.70
2022-08-02T07:17:24.207Z,2.90
2022-08-02T07:18:24.238Z,3.30
2022-08-02T07:19:28.557Z,2.80
2022-08-02T07:20:25.135Z,2.50
2022-08-02T07:21:57.280Z,2.90
2022-08-02T07:22:25.128Z,2.70
2022-08-02T07:23:24.162Z,2.70
2022-08-02T07:24:24.088Z,2.80
2022-08-02T07:25:24.080Z,3.50
2022-08-02T07:26:24.078Z,2.50
2022-08-02T07:27:24.128Z,2.90
2022-08-02T07:28:24.850Z,2.80
2022-08-02T07:29:24.009Z,2.60
2022-08-02T07:30:24.162Z,2.20
2022-08-02T07:31:24.003Z,3.00
2022-08-02T07:32:24.011Z,2.70
2022-08-02T07:33:38.165Z,2.60
2022-08-02T07:34:24.974Z,2.50
2022-08-02T07:35:23.973Z,3.80
2022-08-02T07:36:24.107Z,2.90
2022-08-02T07:37:53.388Z,2.70
2022-08-02T07:38:24.916Z,2.90
2022-08-02T07:39:23.897Z,2.30
2022-08-02T07:40:23.934Z,2.60
2022-08-02T07:41:23.856Z,2.30
2022-08-02T07:42:23.836Z,2.60
2022-08-02T07:43:23.835Z,2.30
2022-08-02T07:44:23.825Z,2.30
2022-08-02T07:45:23.809Z,2.50
2022-08-02T07:46:24.707Z,2.60
2022-08-02T07:47:23.788Z,2.70
2022-08-02T07:48:23.767Z,2.10
2022-08-02T07:49:23.903Z,2.30
2022-08-02T07:50:23.749Z,2.10
2022-08-02T07:51:23.767Z,2.20
2022-08-02T07:52:23.753Z,2.90
2022-08-02T07:53:49.970Z,2.20
2022-08-02T07:54:24.680Z,2.50
2022-08-02T07:55:23.682Z,2.50
2022-08-02T07:56:23.671Z,2.10
2022-08-02T07:57:23.682Z,2.30
2022-08-02T07:58:23.662Z,2.10
2022-08-02T07:59:23.642Z,2.40
2022-08-02T08:00:23.597Z,2.10
2022-08-02T08:01:23.673Z,2.10
2022-08-02T08:02:23.597Z,2.40
2022-08-02T08:03:25.563Z,2.30
2022-08-02T08:04:23.577Z,2.30
2022-08-02T08:05:23.598Z,2.00
2022-08-02T08:06:28.591Z,2.20
2022-08-02T08:07:24.526Z,2.30
2022-08-02T08:08:23.486Z,2.40
2022-08-02T08:09:23.498Z,2.00
2022-08-02T08:10:23.495Z,2.40
2022-08-02T08:11:23.509Z,2.30
2022-08-02T08:12:23.438Z,2.40
2022-08-02T08:13:23.428Z,2.50
2022-08-02T08:14:24.871Z,2.60
2022-08-02T08:15:23.533Z,2.30
2022-08-02T08:16:23.444Z,2.40
2022-08-02T08:17:23.412Z,2.80
2022-08-02T08:18:23.372Z,2.60
2022-08-02T08:19:34.920Z,2.50
2022-08-02T08:20:24.373Z,2.40
2022-08-02T08:21:23.311Z,1.90
2022-08-02T08:22:23.323Z,2.10
2022-08-02T08:23:23.375Z,2.40
2022-08-02T08:24:23.265Z,2.40
2022-08-02T08:25:23.274Z,2.30
2022-08-02T08:26:23.315Z,2.70
2022-08-02T08:27:23.239Z,2.20
2022-08-02T08:28:23.259Z,2.30
2022-08-02T08:29:23.227Z,2.40
2022-08-02T08:30:23.199Z,2.40
2022-08-02T08:31:23.230Z,2.70
2022-08-02T08:32:23.712Z,2.40
2022-08-02T08:33:23.147Z,2.80
2022-08-02T08:34:23.176Z,2.80
2022-08-02T08:35:23.159Z,2.20
2022-08-02T08:36:23.180Z,2.60
2022-08-02T08:37:23.129Z,2.30
2022-08-02T08:38:23.132Z,2.60
2022-08-02T08:39:23.102Z,2.00
2022-08-02T08:40:23.101Z,2.50
2022-08-02T08:41:23.073Z,2.50
2022-08-02T08:42:23.083Z,2.70
2022-08-02T08:43:23.062Z,2.30
2022-08-02T08:44:23.161Z,2.00
2022-08-02T08:45:23.061Z,2.10
2022-08-02T08:46:23.005Z,2.20
2022-08-02T08:47:22.975Z,2.10
2022-08-02T08:48:31.108Z,2.20
2022-08-02T08:49:24.100Z,2.20
2022-08-02T08:50:25.441Z,1.90
2022-08-02T08:51:22.995Z,2.50
2022-08-02T08:52:22.908Z,2.60
2022-08-02T08:53:22.928Z,2.30
2022-08-02T08:54:23.902Z,2.30
2022-08-02T08:55:22.948Z,3.00
2022-08-02T08:56:22.982Z,2.00
2022-08-02T08:57:23.083Z,2.60
2022-08-02T08:58:22.925Z,2.70
2022-08-02T08:59:22.854Z,2.30
2022-08-02T09:00:23.413Z,2.40
2022-08-02T09:01:22.983Z,2.50
2022-08-02T09:02:27.786Z,2.20
2022-08-02T09:03:23.795Z,2.70
2022-08-02T09:04:22.816Z,2.60
2022-08-02T09:05:22.755Z,2.10
2022-08-02T09:06:23.035Z,2.50
2022-08-02T09:07:22.964Z,2.40
2022-08-02T09:08:22.780Z,2.50
2022-08-02T09:09:22.802Z,2.40
2022-08-02T09:10:22.724Z,2.70
2022-08-02T09:11:22.733Z,2.70
2022-08-02T09:12:22.674Z,2.50
2022-08-02T09:13:38.444Z,2.20
2022-08-02T09:14:23.660Z,2.30
2022-08-02T09:15:22.623Z,2.20
2022-08-02T09:16:22.660Z,2.30
2022-08-02T09:17:22.893Z,2.50
2022-08-02T09:18:23.612Z,2.30
2022-08-02T09:19:22.674Z,2.30
2022-08-02T09:20:26.064Z,2.50
2022-08-02T09:21:23.619Z,2.40
2022-08-02T09:22:22.587Z,2.40
2022-08-02T09:23:22.524Z,2.50
2022-08-02T09:24:22.515Z,2.30
2022-08-02T09:25:22.586Z,2.40
2022-08-02T09:26:22.943Z,2.40
2022-08-02T09:27:22.489Z,2.40
2022-08-02T09:28:22.465Z,2.30
2022-08-02T09:29:22.480Z,2.30
2022-08-02T09:30:23.130Z,2.30
2022-08-02T09:31:22.445Z,2.30
2022-08-02T09:32:22.407Z,2.80
2022-08-02T09:33:22.390Z,2.20
2022-08-02T09:34:22.367Z,2.20
2022-08-02T09:35:23.244Z,2.00
2022-08-02T09:36:22.455Z,2.20
2022-08-02T09:37:22.431Z,2.40
2022-08-02T09:38:22.330Z,2.50
2022-08-02T09:39:22.332Z,2.20
2022-08-02T09:40:23.223Z,2.30
2022-08-02T09:41:22.352Z,2.20
2022-08-02T09:42:22.323Z,2.80
2022-08-02T09:43:23.264Z,2.10
2022-08-02T09:44:22.282Z,2.40
2022-08-02T09:45:23.303Z,2.40
2022-08-02T09:46:24.340Z,3.80
2022-08-02T09:47:22.232Z,2.00
2022-08-02T09:48:22.411Z,2.00
2022-08-02T09:49:22.335Z,2.40
2022-08-02T09:50:22.228Z,2.10
2022-08-02T09:51:22.183Z,1.90
2022-08-02T09:52:22.268Z,2.40
2022-08-02T09:53:23.167Z,2.20
2022-08-02T09:54:22.238Z,2.80
2022-08-02T09:55:22.128Z,2.40
2022-08-02T09:56:35.588Z,2.10
2022-08-02T09:57:23.151Z,2.80
2022-08-02T09:58:22.093Z,2.10
2022-08-02T09:59:24.085Z,2.50
2022-08-02T10:00:37.166Z,2.30
2022-08-02T10:01:37.077Z,2.70
2022-08-02T10:02:23.121Z,2.10
2022-08-02T10:03:22.924Z,2.40
2022-08-02T10:04:24.521Z,2.10
2022-08-02T10:05:21.976Z,1.90
2022-08-02T10:06:22.013Z,2.10
2022-08-02T10:07:22.569Z,2.20
2022-08-02T10:08:22.089Z,2.50
2022-08-02T10:09:21.997Z,2.10
2022-08-02T10:10:21.947Z,2.30
2022-08-02T10:11:22.034Z,2.20
2022-08-02T10:12:21.927Z,2.20
2022-08-02T10:13:22.268Z,2.00
2022-08-02T10:14:22.040Z,2.00
2022-08-02T10:15:27.005Z,2.40
2022-08-02T10:16:22.889Z,1.70
2022-08-02T10:17:21.830Z,1.80
2022-08-02T10:18:37.503Z,2.20
2022-08-02T10:20:00.805Z,2.00
2022-08-02T10:20:22.789Z,2.20
2022-08-02T10:21:21.783Z,2.30
2022-08-02T10:22:21.790Z,2.50
2022-08-02T10:23:21.769Z,2.20
2022-08-02T10:24:21.793Z,1.70
2022-08-02T10:25:21.733Z,2.10
2022-08-02T10:26:21.731Z,2.50
2022-08-02T10:27:21.729Z,1.80
2022-08-02T10:28:21.752Z,2.20
2022-08-02T10:29:21.705Z,1.80
2022-08-02T10:30:21.693Z,2.50
2022-08-02T10:31:21.657Z,2.30
2022-08-02T10:32:22.330Z,2.10
2022-08-02T10:33:21.874Z,1.90
2022-08-02T10:34:21.655Z,1.90
2022-08-02T10:35:25.538Z,2.00
2022-08-02T10:36:21.633Z,2.20
2022-08-02T10:37:22.350Z,2.00
2022-08-02T10:38:21.918Z,2.00
2022-08-02T10:39:21.639Z,1.90
2022-08-02T10:40:21.541Z,2.10
2022-08-02T10:41:21.567Z,1.80
2022-08-02T10:42:21.680Z,1.90
2022-08-02T10:43:21.529Z,2.20
2022-08-02T10:44:24.874Z,2.30
2022-08-02T10:45:21.541Z,2.00
2022-08-02T10:46:21.643Z,2.00
2022-08-02T10:47:21.520Z,2.00
2022-08-02T10:48:21.500Z,2.00
2022-08-02T10:49:39.196Z,2.10
2022-08-02T10:50:22.490Z,2.00
2022-08-02T10:51:24.583Z,1.80
2022-08-02T10:52:21.426Z,2.40
2022-08-02T10:53:21.484Z,2.00
2022-08-02T10:54:21.400Z,2.00
2022-08-02T10:55:22.396Z,1.90
2022-08-02T10:56:21.384Z,2.10
2022-08-02T10:57:21.371Z,1.90
2022-08-02T10:58:21.384Z,2.00
2022-08-02T10:59:22.354Z,1.80
2022-08-02T11:00:21.367Z,2.10
2022-08-02T11:01:21.425Z,1.80
2022-08-02T11:02:21.307Z,2.10
2022-08-02T11:03:21.326Z,2.30
2022-08-02T11:04:21.612Z,2.10
2022-08-02T11:05:21.257Z,1.90
2022-08-02T11:06:25.461Z,1.90
2022-08-02T11:07:22.252Z,2.00
2022-08-02T11:08:22.199Z,2.40
2022-08-02T11:09:21.258Z,2.50
2022-08-02T11:10:21.277Z,2.10
2022-08-02T11:11:53.864Z,2.10
2022-08-02T11:12:22.286Z,1.70
2022-08-02T11:13:21.202Z,1.60
2022-08-02T11:14:21.293Z,2.00
2022-08-02T11:15:21.353Z,2.10
2022-08-02T11:16:21.285Z,1.90
2022-08-02T11:17:21.101Z,1.70
2022-08-02T11:18:21.145Z,1.70
2022-08-02T11:19:21.104Z,1.70
2022-08-02T11:20:21.133Z,1.90
2022-08-02T11:21:21.126Z,1.80
2022-08-02T11:22:25.477Z,1.90
2022-08-02T11:23:21.056Z,1.80
2022-08-02T11:24:22.036Z,1.60
2022-08-02T11:25:21.118Z,1.90
2022-08-02T11:26:21.037Z,2.20
2022-08-02T11:27:21.751Z,1.90
2022-08-02T11:28:24.836Z,1.60
2022-08-02T11:29:21.141Z,1.80
2022-08-02T11:30:26.417Z,1.60
2022-08-02T11:31:21.982Z,2.00
2022-08-02T11:32:20.947Z,1.50
2022-08-02T11:33:20.980Z,2.00
2022-08-02T11:34:36.912Z,1.80
2022-08-02T11:35:22.065Z,1.80
2022-08-02T11:36:21.072Z,1.70
2022-08-02T11:37:20.948Z,2.00
2022-08-02T11:38:20.929Z,1.70
2022-08-02T11:39:20.892Z,1.70
2022-08-02T11:40:21.379Z,1.70
2022-08-02T11:41:39.357Z,2.00
2022-08-02T11:42:21.887Z,1.90
2022-08-02T11:43:20.933Z,2.00
2022-08-02T11:44:22.713Z,1.70
2022-08-02T11:45:22.825Z,1.70
2022-08-02T11:46:20.822Z,1.80
2022-08-02T11:47:20.859Z,1.90
2022-08-02T11:48:20.880Z,1.70
2022-08-02T11:49:20.925Z,1.60
2022-08-02T11:50:20.709Z,2.30
2022-08-02T11:51:21.716Z,1.70
2022-08-02T11:52:20.703Z,1.60
2022-08-02T11:53:20.738Z,2.00
2022-08-02T11:54:20.742Z,1.70
2022-08-02T11:55:20.789Z,1.50
2022-08-02T11:56:21.873Z,1.80
2022-08-02T11:57:21.267Z,1.90
2022-08-02T11:58:20.961Z,1.70
2022-08-02T11:59:20.732Z,1.40
2022-08-02T12:00:21.767Z,1.80
2022-08-02T12:01:20.707Z,1.80
2022-08-02T12:02:20.880Z,1.50
2022-08-02T12:03:23.956Z,1.60
2022-08-02T12:04:22.592Z,1.70
2022-08-02T12:05:20.753Z,1.60
2022-08-02T12:06:21.073Z,1.80
2022-08-02T12:07:20.558Z,1.90
2022-08-02T12:08:25.385Z,1.60
2022-08-02T12:09:20.575Z,1.70
2022-08-02T12:10:21.933Z,1.60
2022-08-02T12:11:21.494Z,1.40
2022-08-02T12:12:20.508Z,1.70
2022-08-02T12:13:21.574Z,1.50
2022-08-02T12:14:20.459Z,1.80
2022-08-02T12:15:20.472Z,1.60
2022-08-02T12:16:20.421Z,1.90
2022-08-02T12:17:20.555Z,1.50
2022-08-02T12:18:20.390Z,1.60
2022-08-02T12:19:20.380Z,1.40
2022-08-02T12:20:20.410Z,1.70
2022-08-02T12:21:20.502Z,1.50
2022-08-02T12:22:24.381Z,1.60
2022-08-02T12:23:21.322Z,1.30
2022-08-02T12:24:20.297Z,1.90
2022-08-02T12:25:34.462Z,1.50
2022-08-02T12:26:21.252Z,1.60
2022-08-02T12:27:20.321Z,1.90
2022-08-02T12:28:20.257Z,1.40
2022-08-02T12:29:58.724Z,1.60
2022-08-02T12:30:27.899Z,1.50
2022-08-02T12:31:21.254Z,1.50
2022-08-02T12:32:20.205Z,1.60
2022-08-02T12:33:20.234Z,1.40
2022-08-02T12:34:20.175Z,1.70
2022-08-02T12:35:26.377Z,1.50
2022-08-02T12:36:21.155Z,1.80
2022-08-02T12:37:20.168Z,1.90
2022-08-02T12:38:20.128Z,2.00
2022-08-02T12:39:20.205Z,1.50
2022-08-02T12:40:24.240Z,1.80
2022-08-02T12:41:30.502Z,1.80
2022-08-02T12:42:21.071Z,1.90
2022-08-02T12:43:20.100Z,1.50
2022-08-02T12:44:20.103Z,1.40
2022-08-02T12:45:20.062Z,1.50
2022-08-02T12:46:20.180Z,1.50
2022-08-02T12:47:21.447Z,1.30
2022-08-02T12:48:20.011Z,1.30
2022-08-02T12:49:20.145Z,1.40
2022-08-02T12:50:20.034Z,1.60
2022-08-02T12:51:19.964Z,1.20
2022-08-02T12:52:19.941Z,1.40
2022-08-02T12:53:20.043Z,1.40
2022-08-02T12:54:20.026Z,1.30
2022-08-02T12:55:20.945Z,1.40
2022-08-02T12:56:19.994Z,1.50
2022-08-02T12:57:19.955Z,1.50
2022-08-02T12:58:19.981Z,1.60
2022-08-02T12:59:19.946Z,1.80
2022-08-02T13:00:19.870Z,1.20
2022-08-02T13:01:19.965Z,1.50
2022-08-02T13:02:20.467Z,1.70
2022-08-02T13:04:09.361Z,1.20
2022-08-02T13:04:20.841Z,1.60
2022-08-02T13:05:19.805Z,1.70
2022-08-02T13:07:20.842Z,1.90
2022-08-02T13:08:19.819Z,1.40
2022-08-02T13:09:19.779Z,1.60